Taha, China
Current Conditions -  °F | °C
As of 9:00 AM on Saturday 29 Nov 2014 (Local Time) from ZYHB Reporting Station
Smoke Smoke  
Wind Chill: 11°   Ceiling: Unl
Heat Index: 19°   Visibility: 3mi
Dew Point: 10°   Wind: 7mph
Humidity: 68%   Direction: 150°SSE
Pressure: 30.18"   Gusts: NA
Location:  47.56°N, 124.22°E
Report Text: ZYHB 290100Z 15003MPS 5000 FU NSC M07/M12 Q1022 NOSIG
Loading
Personal Weather Stations






























Interactive Weather Map New forecast layout! Learn more

10-Day Weather Forecast

Advertisements
Track Severe Weather on mobile